sensor_id;sensor_type;location;lat;lon;timestamp;P1;durP1;ratioP1;P2;durP2;ratioP2
60582;SDS011;46415;47.536;19.066;2023-04-01T00:02:17;1.20;;;1.10;;
60582;SDS011;46415;47.536;19.066;2023-04-01T00:05:20;0.85;;;0.75;;
60582;SDS011;46415;47.536;19.066;2023-04-01T00:08:23;5.60;;;1.12;;
60582;SDS011;46415;47.536;19.066;2023-04-01T00:11:27;0.68;;;0.57;;
60582;SDS011;46415;47.536;19.066;2023-04-01T00:14:30;1.65;;;0.65;;
60582;SDS011;46415;47.536;19.066;2023-04-01T00:17:33;4.75;;;1.33;;
60582;SDS011;46415;47.536;19.066;2023-04-01T00:20:36;0.80;;;0.80;;
60582;SDS011;46415;47.536;19.066;2023-04-01T00:23:39;0.93;;;0.90;;
60582;SDS011;46415;47.536;19.066;2023-04-01T00:26:42;1.25;;;0.85;;
60582;SDS011;46415;47.536;19.066;2023-04-01T00:29:46;0.73;;;0.62;;
60582;SDS011;46415;47.536;19.066;2023-04-01T00:32:53;0.65;;;0.65;;
60582;SDS011;46415;47.536;19.066;2023-04-01T00:36:04;0.75;;;0.75;;
60582;SDS011;46415;47.536;19.066;2023-04-01T00:39:19;1.00;;;1.00;;
60582;SDS011;46415;47.536;19.066;2023-04-01T00:42:23;1.00;;;0.90;;
60582;SDS011;46415;47.536;19.066;2023-04-01T00:45:36;1.83;;;0.70;;
60582;SDS011;46415;47.536;19.066;2023-04-01T00:48:43;0.90;;;0.75;;
60582;SDS011;46415;47.536;19.066;2023-04-01T00:51:53;1.30;;;0.95;;
60582;SDS011;46415;47.536;19.066;2023-04-01T00:54:58;0.88;;;0.88;;
60582;SDS011;46415;47.536;19.066;2023-04-01T00:58:04;0.93;;;0.80;;
60582;SDS011;46415;47.536;19.066;2023-04-01T01:01:09;2.70;;;0.95;;
60582;SDS011;46415;47.536;19.066;2023-04-01T01:04:29;0.77;;;0.73;;
60582;SDS011;46415;47.536;19.066;2023-04-01T01:10:55;2.42;;;0.82;;
60582;SDS011;46415;47.536;19.066;2023-04-01T01:14:01;2.75;;;0.85;;
60582;SDS011;46415;47.536;19.066;2023-04-01T01:17:19;2.22;;;0.93;;
60582;SDS011;46415;47.536;19.066;2023-04-01T01:20:52;0.98;;;0.98;;
60582;SDS011;46415;47.536;19.066;2023-04-01T01:27:30;0.85;;;0.65;;
60582;SDS011;46415;47.536;19.066;2023-04-01T01:30:51;3.22;;;1.08;;
60582;SDS011;46415;47.536;19.066;2023-04-01T01:38:00;3.40;;;1.15;;
60582;SDS011;46415;47.536;19.066;2023-04-01T01:41:13;0.85;;;0.80;;
60582;SDS011;46415;47.536;19.066;2023-04-01T01:44:20;0.77;;;0.77;;
60582;SDS011;46415;47.536;19.066;2023-04-01T01:47:26;0.93;;;0.65;;
60582;SDS011;46415;47.536;19.066;2023-04-01T01:50:31;0.65;;;0.65;;
60582;SDS011;46415;47.536;19.066;2023-04-01T01:53:35;4.03;;;0.80;;
60582;SDS011;46415;47.536;19.066;2023-04-01T01:56:38;2.22;;;0.80;;
60582;SDS011;46415;47.536;19.066;2023-04-01T01:59:44;0.95;;;0.93;;
60582;SDS011;46415;47.536;19.066;2023-04-01T02:02:51;0.88;;;0.88;;
60582;SDS011;46415;47.536;19.066;2023-04-01T02:05:57;0.95;;;0.80;;
60582;SDS011;46415;47.536;19.066;2023-04-01T02:09:06;0.73;;;0.68;;
60582;SDS011;46415;47.536;19.066;2023-04-01T02:12:14;0.60;;;0.60;;
60582;SDS011;46415;47.536;19.066;2023-04-01T02:15:19;0.45;;;0.43;;
60582;SDS011;46415;47.536;19.066;2023-04-01T02:18:24;0.75;;;0.70;;
60582;SDS011;46415;47.536;19.066;2023-04-01T02:21:29;0.40;;;0.40;;
60582;SDS011;46415;47.536;19.066;2023-04-01T02:24:33;1.62;;;0.70;;
60582;SDS011;46415;47.536;19.066;2023-04-01T02:27:40;1.23;;;0.50;;
60582;SDS011;46415;47.536;19.066;2023-04-01T02:30:46;1.17;;;0.60;;
60582;SDS011;46415;47.536;19.066;2023-04-01T02:33:51;0.65;;;0.60;;
60582;SDS011;46415;47.536;19.066;2023-04-01T02:36:56;0.37;;;0.37;;
60582;SDS011;46415;47.536;19.066;2023-04-01T02:40:00;0.62;;;0.52;;
60582;SDS011;46415;47.536;19.066;2023-04-01T02:43:04;0.60;;;0.60;;
60582;SDS011;46415;47.536;19.066;2023-04-01T02:46:08;0.40;;;0.40;;
60582;SDS011;46415;47.536;19.066;2023-04-01T02:49:11;0.93;;;0.65;;
60582;SDS011;46415;47.536;19.066;2023-04-01T02:52:14;0.60;;;0.60;;
60582;SDS011;46415;47.536;19.066;2023-04-01T02:55:17;1.65;;;1.08;;
60582;SDS011;46415;47.536;19.066;2023-04-01T02:58:20;0.60;;;0.60;;
60582;SDS011;46415;47.536;19.066;2023-04-01T03:01:22;3.90;;;0.90;;
60582;SDS011;46415;47.536;19.066;2023-04-01T03:04:26;1.83;;;0.80;;
60582;SDS011;46415;47.536;19.066;2023-04-01T03:07:28;1.00;;;0.73;;
60582;SDS011;46415;47.536;19.066;2023-04-01T03:10:31;0.70;;;0.70;;
60582;SDS011;46415;47.536;19.066;2023-04-01T03:13:35;0.52;;;0.52;;
60582;SDS011;46415;47.536;19.066;2023-04-01T03:16:38;4.05;;;0.80;;
60582;SDS011;46415;47.536;19.066;2023-04-01T03:19:41;0.50;;;0.50;;
60582;SDS011;46415;47.536;19.066;2023-04-01T03:22:44;0.40;;;0.40;;
60582;SDS011;46415;47.536;19.066;2023-04-01T03:25:48;0.65;;;0.60;;
60582;SDS011;46415;47.536;19.066;2023-04-01T03:28:51;1.25;;;0.75;;
60582;SDS011;46415;47.536;19.066;2023-04-01T03:31:54;0.43;;;0.43;;
60582;SDS011;46415;47.536;19.066;2023-04-01T03:34:57;1.85;;;0.50;;
60582;SDS011;46415;47.536;19.066;2023-04-01T03:37:59;1.33;;;0.50;;
60582;SDS011;46415;47.536;19.066;2023-04-01T03:41:03;0.40;;;0.40;;
60582;SDS011;46415;47.536;19.066;2023-04-01T03:44:06;0.65;;;0.65;;
60582;SDS011;46415;47.536;19.066;2023-04-01T03:47:09;0.73;;;0.73;;
60582;SDS011;46415;47.536;19.066;2023-04-01T03:50:12;0.50;;;0.40;;
60582;SDS011;46415;47.536;19.066;2023-04-01T03:53:15;0.90;;;0.40;;
60582;SDS011;46415;47.536;19.066;2023-04-01T03:56:18;0.95;;;0.93;;
60582;SDS011;46415;47.536;19.066;2023-04-01T03:59:21;1.05;;;0.65;;
60582;SDS011;46415;47.536;19.066;2023-04-01T04:02:24;0.60;;;0.60;;
60582;SDS011;46415;47.536;19.066;2023-04-01T04:05:27;0.55;;;0.50;;
60582;SDS011;46415;47.536;19.066;2023-04-01T04:08:30;0.40;;;0.40;;
60582;SDS011;46415;47.536;19.066;2023-04-01T04:11:33;0.50;;;0.50;;
60582;SDS011;46415;47.536;19.066;2023-04-01T04:14:36;0.57;;;0.57;;
60582;SDS011;46415;47.536;19.066;2023-04-01T04:17:39;0.68;;;0.40;;
60582;SDS011;46415;47.536;19.066;2023-04-01T04:20:45;1.75;;;1.23;;
60582;SDS011;46415;47.536;19.066;2023-04-01T04:23:52;0.47;;;0.47;;
60582;SDS011;46415;47.536;19.066;2023-04-01T04:26:55;0.40;;;0.40;;
60582;SDS011;46415;47.536;19.066;2023-04-01T04:29:58;0.60;;;0.60;;
60582;SDS011;46415;47.536;19.066;2023-04-01T04:33:01;1.85;;;1.00;;
60582;SDS011;46415;47.536;19.066;2023-04-01T04:36:04;0.35;;;0.35;;
60582;SDS011;46415;47.536;19.066;2023-04-01T04:39:07;0.45;;;0.45;;
60582;SDS011;46415;47.536;19.066;2023-04-01T04:42:12;0.70;;;0.70;;
60582;SDS011;46415;47.536;19.066;2023-04-01T04:45:14;1.52;;;0.62;;
60582;SDS011;46415;47.536;19.066;2023-04-01T04:48:18;0.85;;;0.82;;
60582;SDS011;46415;47.536;19.066;2023-04-01T04:51:23;0.40;;;0.40;;
60582;SDS011;46415;47.536;19.066;2023-04-01T04:54:26;0.60;;;0.60;;
60582;SDS011;46415;47.536;19.066;2023-04-01T04:57:29;0.62;;;0.52;;
60582;SDS011;46415;47.536;19.066;2023-04-01T05:00:32;0.90;;;0.77;;
60582;SDS011;46415;47.536;19.066;2023-04-01T05:03:35;1.95;;;0.68;;
60582;SDS011;46415;47.536;19.066;2023-04-01T05:06:39;1.50;;;0.70;;
60582;SDS011;46415;47.536;19.066;2023-04-01T05:09:42;0.70;;;0.70;;
60582;SDS011;46415;47.536;19.066;2023-04-01T05:12:45;2.08;;;1.00;;
60582;SDS011;46415;47.536;19.066;2023-04-01T05:15:49;1.98;;;1.00;;
60582;SDS011;46415;47.536;19.066;2023-04-01T05:18:51;0.62;;;0.62;;
60582;SDS011;46415;47.536;19.066;2023-04-01T05:21:54;0.95;;;0.77;;
60582;SDS011;46415;47.536;19.066;2023-04-01T05:24:57;0.43;;;0.43;;
60582;SDS011;46415;47.536;19.066;2023-04-01T05:28:00;1.87;;;0.82;;
60582;SDS011;46415;47.536;19.066;2023-04-01T05:31:04;0.40;;;0.40;;
60582;SDS011;46415;47.536;19.066;2023-04-01T05:34:08;0.62;;;0.62;;
60582;SDS011;46415;47.536;19.066;2023-04-01T05:37:11;0.73;;;0.73;;
60582;SDS011;46415;47.536;19.066;2023-04-01T05:40:14;3.25;;;1.75;;
60582;SDS011;46415;47.536;19.066;2023-04-01T05:43:17;3.55;;;0.68;;
60582;SDS011;46415;47.536;19.066;2023-04-01T05:46:21;1.80;;;0.80;;
60582;SDS011;46415;47.536;19.066;2023-04-01T05:49:24;2.47;;;1.10;;
60582;SDS011;46415;47.536;19.066;2023-04-01T05:52:30;0.75;;;0.75;;
60582;SDS011;46415;47.536;19.066;2023-04-01T05:55:34;1.48;;;0.70;;
60582;SDS011;46415;47.536;19.066;2023-04-01T05:58:39;0.90;;;0.70;;
60582;SDS011;46415;47.536;19.066;2023-04-01T06:01:42;0.90;;;0.90;;
60582;SDS011;46415;47.536;19.066;2023-04-01T06:04:46;0.85;;;0.85;;
60582;SDS011;46415;47.536;19.066;2023-04-01T06:07:49;1.60;;;1.00;;
60582;SDS011;46415;47.536;19.066;2023-04-01T06:11:46;1.23;;;0.98;;
60582;SDS011;46415;47.536;19.066;2023-04-01T06:52:54;1.10;;;1.00;;
60582;SDS011;46415;47.536;19.066;2023-04-01T06:56:28;1.20;;;1.10;;
60582;SDS011;46415;47.536;19.066;2023-04-01T06:59:32;0.77;;;0.77;;
60582;SDS011;46415;47.536;19.066;2023-04-01T07:02:45;1.05;;;0.90;;
60582;SDS011;46415;47.536;19.066;2023-04-01T07:06:00;1.67;;;1.05;;
60582;SDS011;46415;47.536;19.066;2023-04-01T07:09:11;2.30;;;1.00;;
60582;SDS011;46415;47.536;19.066;2023-04-01T07:15:46;2.50;;;1.00;;
60582;SDS011;46415;47.536;19.066;2023-04-01T07:22:34;1.42;;;1.12;;
60582;SDS011;46415;47.536;19.066;2023-04-01T07:25:42;2.60;;;1.40;;
60582;SDS011;46415;47.536;19.066;2023-04-01T07:28:50;1.23;;;0.90;;
60582;SDS011;46415;47.536;19.066;2023-04-01T07:32:39;2.03;;;0.90;;
60582;SDS011;46415;47.536;19.066;2023-04-01T07:35:30;1.85;;;1.15;;
60582;SDS011;46415;47.536;19.066;2023-04-01T07:48:56;1.67;;;1.48;;
60582;SDS011;46415;47.536;19.066;2023-04-01T07:52:32;1.10;;;1.00;;
60582;SDS011;46415;47.536;19.066;2023-04-01T08:05:50;0.95;;;0.80;;
60582;SDS011;46415;47.536;19.066;2023-04-01T08:09:06;1.92;;;1.00;;
60582;SDS011;46415;47.536;19.066;2023-04-01T08:22:43;1.02;;;0.95;;
60582;SDS011;46415;47.536;19.066;2023-04-01T08:29:01;1.30;;;1.17;;
60582;SDS011;46415;47.536;19.066;2023-04-01T08:32:12;1.60;;;1.10;;
60582;SDS011;46415;47.536;19.066;2023-04-01T08:38:42;1.80;;;1.00;;
60582;SDS011;46415;47.536;19.066;2023-04-01T08:58:59;1.60;;;0.80;;
60582;SDS011;46415;47.536;19.066;2023-04-01T09:02:33;1.25;;;1.00;;
60582;SDS011;46415;47.536;19.066;2023-04-01T09:05:40;1.33;;;0.82;;
60582;SDS011;46415;47.536;19.066;2023-04-01T09:15:40;1.65;;;1.00;;
60582;SDS011;46415;47.536;19.066;2023-04-01T09:19:17;1.80;;;0.98;;
60582;SDS011;46415;47.536;19.066;2023-04-01T09:37:10;1.67;;;1.30;;
60582;SDS011;46415;47.536;19.066;2023-04-01T09:47:15;1.42;;;1.05;;
60582;SDS011;46415;47.536;19.066;2023-04-01T10:35:35;1.65;;;1.00;;
60582;SDS011;46415;47.536;19.066;2023-04-01T11:29:19;1.45;;;0.98;;
60582;SDS011;46415;47.536;19.066;2023-04-01T11:36:32;1.17;;;0.70;;
60582;SDS011;46415;47.536;19.066;2023-04-01T11:39:37;1.60;;;1.20;;
60582;SDS011;46415;47.536;19.066;2023-04-01T11:43:15;1.92;;;1.10;;
60582;SDS011;46415;47.536;19.066;2023-04-01T12:11:15;0.80;;;0.80;;
60582;SDS011;46415;47.536;19.066;2023-04-01T12:21:34;2.42;;;1.90;;
60582;SDS011;46415;47.536;19.066;2023-04-01T12:24:49;1.42;;;1.00;;
60582;SDS011;46415;47.536;19.066;2023-04-01T12:35:34;1.15;;;0.85;;
60582;SDS011;46415;47.536;19.066;2023-04-01T13:21:38;1.83;;;0.80;;
60582;SDS011;46415;47.536;19.066;2023-04-01T13:35:14;0.88;;;0.82;;
60582;SDS011;46415;47.536;19.066;2023-04-01T13:38:47;1.95;;;0.95;;
60582;SDS011;46415;47.536;19.066;2023-04-01T13:42:06;0.87;;;0.70;;
60582;SDS011;46415;47.536;19.066;2023-04-01T13:45:20;0.88;;;0.73;;
60582;SDS011;46415;47.536;19.066;2023-04-01T14:01:58;1.48;;;0.90;;
60582;SDS011;46415;47.536;19.066;2023-04-01T14:05:28;0.93;;;0.82;;
60582;SDS011;46415;47.536;19.066;2023-04-01T14:12:05;1.05;;;0.62;;
60582;SDS011;46415;47.536;19.066;2023-04-01T14:21:51;1.70;;;0.60;;
60582;SDS011;46415;47.536;19.066;2023-04-01T14:31:37;0.62;;;0.60;;
60582;SDS011;46415;47.536;19.066;2023-04-01T14:35:11;1.62;;;0.85;;
60582;SDS011;46415;47.536;19.066;2023-04-01T14:46:03;1.65;;;0.98;;
60582;SDS011;46415;47.536;19.066;2023-04-01T14:49:19;1.63;;;0.80;;
60582;SDS011;46415;47.536;19.066;2023-04-01T14:52:36;0.93;;;0.70;;
60582;SDS011;46415;47.536;19.066;2023-04-01T14:58:50;2.08;;;1.08;;
60582;SDS011;46415;47.536;19.066;2023-04-01T15:02:09;0.93;;;0.77;;
60582;SDS011;46415;47.536;19.066;2023-04-01T15:05:32;1.52;;;1.17;;
60582;SDS011;46415;47.536;19.066;2023-04-01T15:15:20;1.33;;;1.10;;
60582;SDS011;46415;47.536;19.066;2023-04-01T15:29:04;0.85;;;0.85;;
60582;SDS011;46415;47.536;19.066;2023-04-01T15:39:17;1.20;;;0.60;;
60582;SDS011;46415;47.536;19.066;2023-04-01T15:42:39;0.68;;;0.50;;
60582;SDS011;46415;47.536;19.066;2023-04-01T15:46:24;1.23;;;0.77;;
60582;SDS011;46415;47.536;19.066;2023-04-01T15:49:39;1.17;;;0.90;;
60582;SDS011;46415;47.536;19.066;2023-04-01T16:06:35;0.50;;;0.50;;
60582;SDS011;46415;47.536;19.066;2023-04-01T16:13:32;0.40;;;0.40;;
60582;SDS011;46415;47.536;19.066;2023-04-01T16:16:45;0.40;;;0.40;;
60582;SDS011;46415;47.536;19.066;2023-04-01T16:23:37;0.50;;;0.40;;
60582;SDS011;46415;47.536;19.066;2023-04-01T16:27:02;0.50;;;0.50;;
60582;SDS011;46415;47.536;19.066;2023-04-01T16:33:45;0.60;;;0.60;;
60582;SDS011;46415;47.536;19.066;2023-04-01T16:37:17;0.55;;;0.50;;
60582;SDS011;46415;47.536;19.066;2023-04-01T16:43:44;0.43;;;0.43;;
60582;SDS011;46415;47.536;19.066;2023-04-01T16:47:11;0.47;;;0.47;;
60582;SDS011;46415;47.536;19.066;2023-04-01T16:50:24;0.60;;;0.60;;
60582;SDS011;46415;47.536;19.066;2023-04-01T16:53:43;0.70;;;0.70;;
60582;SDS011;46415;47.536;19.066;2023-04-01T17:06:45;1.30;;;1.12;;
60582;SDS011;46415;47.536;19.066;2023-04-01T17:10:24;1.73;;;1.15;;
60582;SDS011;46415;47.536;19.066;2023-04-01T17:13:35;2.72;;;1.08;;
60582;SDS011;46415;47.536;19.066;2023-04-01T17:23:34;1.92;;;0.90;;
60582;SDS011;46415;47.536;19.066;2023-04-01T17:33:10;2.72;;;1.50;;
60582;SDS011;46415;47.536;19.066;2023-04-01T17:59:36;1.30;;;1.20;;
60582;SDS011;46415;47.536;19.066;2023-04-01T18:06:17;2.17;;;1.52;;
60582;SDS011;46415;47.536;19.066;2023-04-01T18:15:40;2.00;;;1.73;;
60582;SDS011;46415;47.536;19.066;2023-04-01T18:19:08;2.75;;;1.80;;
60582;SDS011;46415;47.536;19.066;2023-04-01T18:25:36;1.98;;;1.60;;
60582;SDS011;46415;47.536;19.066;2023-04-01T18:28:53;2.50;;;2.08;;
60582;SDS011;46415;47.536;19.066;2023-04-01T18:32:10;1.70;;;1.23;;
60582;SDS011;46415;47.536;19.066;2023-04-01T18:39:37;2.33;;;1.77;;
60582;SDS011;46415;47.536;19.066;2023-04-01T18:46:20;2.53;;;1.50;;
60582;SDS011;46415;47.536;19.066;2023-04-01T18:49:48;2.40;;;2.15;;
60582;SDS011;46415;47.536;19.066;2023-04-01T18:52:58;2.92;;;1.25;;
60582;SDS011;46415;47.536;19.066;2023-04-01T18:56:32;3.53;;;2.40;;
60582;SDS011;46415;47.536;19.066;2023-04-01T19:02:51;1.65;;;1.55;;
60582;SDS011;46415;47.536;19.066;2023-04-01T19:06:01;1.58;;;1.25;;
60582;SDS011;46415;47.536;19.066;2023-04-01T19:09:19;3.08;;;1.75;;
60582;SDS011;46415;47.536;19.066;2023-04-01T19:16:37;1.08;;;1.00;;
60582;SDS011;46415;47.536;19.066;2023-04-01T19:26:42;1.58;;;1.10;;
60582;SDS011;46415;47.536;19.066;2023-04-01T19:43:42;1.85;;;1.33;;
60582;SDS011;46415;47.536;19.066;2023-04-01T19:46:44;1.48;;;1.27;;
60582;SDS011;46415;47.536;19.066;2023-04-01T19:50:06;2.62;;;2.00;;
60582;SDS011;46415;47.536;19.066;2023-04-01T20:03:46;3.53;;;1.77;;
60582;SDS011;46415;47.536;19.066;2023-04-01T20:06:56;2.62;;;1.73;;
60582;SDS011;46415;47.536;19.066;2023-04-01T20:14:07;4.65;;;2.87;;
60582;SDS011;46415;47.536;19.066;2023-04-01T20:20:38;3.90;;;2.67;;
60582;SDS011;46415;47.536;19.066;2023-04-01T20:37:14;3.67;;;2.10;;
60582;SDS011;46415;47.536;19.066;2023-04-01T20:40:41;4.62;;;2.65;;
60582;SDS011;46415;47.536;19.066;2023-04-01T20:47:28;3.72;;;2.60;;
60582;SDS011;46415;47.536;19.066;2023-04-01T20:50:59;4.37;;;2.30;;
60582;SDS011;46415;47.536;19.066;2023-04-01T21:01:40;3.42;;;2.47;;
60582;SDS011;46415;47.536;19.066;2023-04-01T21:21:33;5.95;;;2.17;;
60582;SDS011;46415;47.536;19.066;2023-04-01T21:48:16;1.95;;;1.58;;
60582;SDS011;46415;47.536;19.066;2023-04-01T21:55:16;1.62;;;1.10;;
60582;SDS011;46415;47.536;19.066;2023-04-01T22:12:36;1.00;;;1.00;;
60582;SDS011;46415;47.536;19.066;2023-04-01T22:15:48;0.75;;;0.75;;
60582;SDS011;46415;47.536;19.066;2023-04-01T22:19:10;1.00;;;1.00;;
60582;SDS011;46415;47.536;19.066;2023-04-01T22:22:25;1.58;;;0.88;;
60582;SDS011;46415;47.536;19.066;2023-04-01T22:32:41;2.85;;;1.15;;
60582;SDS011;46415;47.536;19.066;2023-04-01T22:49:42;0.80;;;0.80;;
60582;SDS011;46415;47.536;19.066;2023-04-01T22:53:01;1.50;;;0.93;;
60582;SDS011;46415;47.536;19.066;2023-04-01T22:56:13;0.90;;;0.90;;
60582;SDS011;46415;47.536;19.066;2023-04-01T22:59:37;1.85;;;0.95;;
60582;SDS011;46415;47.536;19.066;2023-04-01T23:03:04;1.23;;;1.12;;
60582;SDS011;46415;47.536;19.066;2023-04-01T23:06:20;0.75;;;0.75;;
60582;SDS011;46415;47.536;19.066;2023-04-01T23:09:29;0.93;;;0.93;;
60582;SDS011;46415;47.536;19.066;2023-04-01T23:12:35;1.67;;;0.60;;
60582;SDS011;46415;47.536;19.066;2023-04-01T23:15:38;3.42;;;0.90;;
60582;SDS011;46415;47.536;19.066;2023-04-01T23:18:49;0.85;;;0.85;;
60582;SDS011;46415;47.536;19.066;2023-04-01T23:22:02;1.23;;;0.93;;
60582;SDS011;46415;47.536;19.066;2023-04-01T23:28:25;0.88;;;0.75;;
60582;SDS011;46415;47.536;19.066;2023-04-01T23:32:02;1.23;;;1.12;;
60582;SDS011;46415;47.536;19.066;2023-04-01T23:35:11;1.48;;;0.90;;
60582;SDS011;46415;47.536;19.066;2023-04-01T23:38:20;0.80;;;0.80;;
60582;SDS011;46415;47.536;19.066;2023-04-01T23:41:25;1.23;;;0.98;;
60582;SDS011;46415;47.536;19.066;2023-04-01T23:44:32;0.50;;;0.50;;
60582;SDS011;46415;47.536;19.066;2023-04-01T23:47:38;0.80;;;0.80;;
60582;SDS011;46415;47.536;19.066;2023-04-01T23:50:43;0.55;;;0.52;;
60582;SDS011;46415;47.536;19.066;2023-04-01T23:53:48;0.80;;;0.80;;
60582;SDS011;46415;47.536;19.066;2023-04-01T23:57:02;0.88;;;0.88;;
